Time;durP1;ratioP1;P1;durP2;ratioP2;P2;SDS_P1;SDS_P2;PMS_P1;PMS_P2;Temp;Humidity;BMP_temperature;BMP_pressure;BME280_temperature;BME280_humidity;BME280_pressure;Samples;Min_cycle;Max_cycle;Signal;HPM_P1;HPM_P2
2022/07/24 00:02:14;;;;;;;9.30;8.50;;;15.80;1.00;;;;;;5076890;28;20776;-52
2022/07/24 00:04:46;;;;;;;8.77;8.07;;;15.80;1.00;;;;;;5080317;28;20444;-59
2022/07/24 00:07:14;;;;;;;9.27;8.33;;;15.70;1.00;;;;;;5079478;28;20468;-59
2022/07/24 00:09:41;;;;;;;9.33;8.43;;;15.70;1.00;;;;;;5079089;28;20464;-59
2022/07/24 00:12:09;;;;;;;9.57;8.57;;;15.60;1.00;;;;;;5079263;28;20652;-60
2022/07/24 00:14:37;;;;;;;9.47;8.70;;;15.60;1.00;;;;;;5080064;28;20435;-57
2022/07/24 00:17:05;;;;;;;10.03;9.13;;;15.60;10.30;;;;;;5079746;28;20457;-59
2022/07/24 00:19:32;;;;;;;9.23;8.43;;;15.50;99.90;;;;;;5080778;28;20558;-57
2022/07/24 00:22:00;;;;;;;9.27;8.50;;;15.50;81.60;;;;;;5072144;28;20444;-55
2022/07/24 00:24:27;;;;;;;10.10;8.60;;;15.50;1.00;;;;;;5074166;28;20962;-57
2022/07/24 00:26:57;;;;;;;8.87;8.07;;;15.40;99.90;;;;;;5078002;28;20481;-59
2022/07/24 00:29:24;;;;;;;10.00;9.10;;;15.40;99.90;;;;;;5078174;28;20450;-59
2022/07/24 00:31:53;;;;;;;9.53;8.73;;;15.40;99.90;;;;;;5074385;28;20466;-52
2022/07/24 00:34:29;;;;;;;10.03;8.80;;;15.30;99.90;;;;;;5078864;28;20527;-58
2022/07/24 00:36:57;;;;;;;8.67;7.97;;;15.30;1.00;;;;;;5079172;28;20548;-57
2022/07/24 00:39:27;;;;;;;10.67;8.33;;;15.20;99.90;;;;;;5079951;28;20520;-57
2022/07/24 00:41:58;;;;;;;10.53;9.53;;;15.30;1.00;;;;;;5078689;28;20786;-54
2022/07/24 00:44:26;;;;;;;10.40;9.20;;;15.20;1.00;;;;;;5079588;28;20765;-54
2022/07/24 00:46:55;;;;;;;9.80;8.97;;;15.20;99.90;;;;;;5078901;28;20476;-59
2022/07/24 00:49:26;;;;;;;10.07;9.17;;;15.20;1.00;;;;;;5079313;28;20468;-58
2022/07/24 00:51:54;;;;;;;12.43;8.83;;;15.10;99.90;;;;;;5078752;28;20514;-59
2022/07/24 00:54:24;;;;;;;10.17;9.00;;;15.10;99.90;;;;;;5078786;28;20443;-50
2022/07/24 00:56:54;;;;;;;8.40;7.53;;;15.10;1.00;;;;;;5079426;28;20443;-55
2022/07/24 00:59:22;;;;;;;10.80;9.90;;;15.10;1.00;;;;;;5078957;28;20486;-52
2022/07/24 01:01:53;;;;;;;8.60;7.80;;;15.00;3.70;;;;;;5078569;28;20436;-59
2022/07/24 01:04:21;;;;;;;9.63;8.83;;;15.10;99.90;;;;;;5078125;28;20485;-59
2022/07/24 01:06:51;;;;;;;11.73;8.83;;;15.10;99.90;;;;;;5079120;28;20469;-59
2022/07/24 01:09:19;;;;;;;9.70;8.70;;;15.10;1.00;;;;;;5078346;28;20432;-57
2022/07/24 01:11:48;;;;;;;10.57;9.17;;;15.00;99.90;;;;;;5078575;28;20465;-57
2022/07/24 01:14:18;;;;;;;9.63;8.80;;;15.10;99.90;;;;;;5077419;28;20465;-58
2022/07/24 01:16:47;;;;;;;10.00;9.10;;;15.10;99.90;;;;;;5078201;28;20450;-59
2022/07/24 01:19:16;;;;;;;9.33;8.53;;;15.00;22.00;;;;;;5079556;28;20493;-53
2022/07/24 01:21:48;;;;;;;11.90;9.10;;;14.90;1.00;;;;;;5078441;28;20432;-56
2022/07/24 01:24:19;;;;;;;10.47;9.57;;;14.90;37.50;;;;;;5078112;28;20432;-55
2022/07/24 01:26:48;;;;;;;12.57;10.17;;;15.00;1.00;;;;;;5078142;28;20519;-57
2022/07/24 01:29:16;;;;;;;10.57;9.67;;;14.90;99.90;;;;;;5078634;28;20458;-59
2022/07/24 01:31:43;;;;;;;9.07;8.27;;;14.90;26.00;;;;;;5078579;28;20869;-59
2022/07/24 01:34:14;;;;;;;10.77;9.80;;;14.90;1.00;;;;;;5078142;28;20867;-59
2022/07/24 01:36:42;;;;;;;9.57;8.57;;;14.80;99.90;;;;;;5078346;28;20442;-53
2022/07/24 01:39:11;;;;;;;11.10;9.43;;;14.80;99.90;;;;;;5078496;28;20521;-58
2022/07/24 01:41:39;;;;;;;12.67;9.67;;;14.80;99.90;;;;;;5078033;28;20436;-60
2022/07/24 01:44:10;;;;;;;10.07;9.07;;;14.70;1.00;;;;;;5078133;28;20461;-58
2022/07/24 01:46:37;;;;;;;10.73;9.80;;;14.70;1.00;;;;;;5077974;28;20538;-59
2022/07/24 01:49:07;;;;;;;10.90;9.40;;;14.70;99.90;;;;;;5078076;28;20435;-59
2022/07/24 01:51:34;;;;;;;10.23;9.37;;;14.70;99.90;;;;;;5077847;28;20470;-56
2022/07/24 01:54:07;;;;;;;10.13;8.87;;;14.60;99.90;;;;;;5078167;28;20442;-56
2022/07/24 01:56:35;;;;;;;10.30;9.30;;;14.60;99.90;;;;;;5077533;28;20440;-57
2022/07/24 01:59:04;;;;;;;10.00;9.10;;;14.60;99.90;;;;;;5077627;28;20489;-56
2022/07/24 02:01:32;;;;;;;10.93;8.77;;;14.70;1.00;;;;;;5077473;28;20440;-56
2022/07/24 02:03:59;;;;;;;9.17;8.37;;;14.70;1.00;;;;;;5077308;28;20461;-55
2022/07/24 02:06:26;;;;;;;11.80;9.37;;;14.70;99.90;;;;;;5077876;28;20461;-53
2022/07/24 02:12:23;;;;;;;9.50;8.70;;;14.70;99.90;;;;;;5076841;28;20859;-57
2022/07/24 02:14:51;;;;;;;10.20;9.30;;;14.70;99.90;;;;;;5077611;28;20454;-58
2022/07/24 02:17:18;;;;;;;11.33;9.80;;;14.70;99.90;;;;;;5077778;28;20551;-59
2022/07/24 02:19:45;;;;;;;9.93;8.80;;;14.70;99.90;;;;;;5078190;28;20475;-55
2022/07/24 02:22:13;;;;;;;9.70;8.90;;;14.70;1.00;;;;;;5077273;28;20552;-56
2022/07/24 02:24:40;;;;;;;10.33;9.33;;;14.70;99.90;;;;;;5077359;28;20432;-60
2022/07/24 02:27:08;;;;;;;11.07;10.00;;;14.70;99.90;;;;;;5077995;28;20457;-57
2022/07/24 02:29:41;;;;;;;9.80;8.80;;;14.70;99.90;;;;;;5077648;28;20907;-60
2022/07/24 02:32:08;;;;;;;10.73;9.53;;;14.60;99.90;;;;;;5077235;28;20467;-57
2022/07/24 02:34:36;;;;;;;10.37;9.37;;;14.60;99.90;;;;;;5077123;28;20877;-57
2022/07/24 02:37:06;;;;;;;9.40;8.50;;;14.60;99.90;;;;;;5077861;28;20560;-57
2022/07/24 02:39:41;;;;;;;10.30;9.40;;;14.60;99.90;;;;;;5076501;28;20460;-59
2022/07/24 02:42:09;;;;;;;10.20;9.20;;;14.70;98.70;;;;;;5077105;28;20829;-57
2022/07/24 02:44:37;;;;;;;10.33;9.50;;;14.70;99.90;;;;;;5077439;28;20534;-53
2022/07/24 02:47:05;;;;;;;9.77;8.83;;;14.80;1.00;;;;;;5076739;28;20888;-58
2022/07/24 02:49:32;;;;;;;9.47;8.53;;;14.80;1.00;;;;;;5076461;28;20436;-59
2022/07/24 02:52:00;;;;;;;9.80;8.77;;;14.90;1.00;;;;;;5076143;28;20547;-59
2022/07/24 02:54:31;;;;;;;10.60;9.70;;;14.90;1.00;;;;;;5076967;28;20461;-59
2022/07/24 02:56:58;;;;;;;9.80;8.87;;;14.90;1.00;;;;;;5076497;28;20761;-57
2022/07/24 02:59:33;;;;;;;9.90;8.87;;;14.80;99.90;;;;;;5076173;28;20499;-60
2022/07/24 03:02:02;;;;;;;9.40;8.60;;;14.80;99.90;;;;;;5076719;28;20436;-58
2022/07/24 03:04:30;;;;;;;9.43;8.50;;;14.80;99.90;;;;;;5076827;28;20887;-58
2022/07/24 03:07:00;;;;;;;9.17;8.37;;;14.80;99.90;;;;;;5077433;28;20876;-60
2022/07/24 03:09:27;;;;;;;10.80;8.57;;;14.70;1.00;;;;;;5076050;28;20541;-59
2022/07/24 03:11:54;;;;;;;10.03;9.20;;;14.80;1.00;;;;;;5076441;28;20802;-57
2022/07/24 03:14:21;;;;;;;9.13;8.40;;;14.80;1.00;;;;;;5076833;28;20545;-55
2022/07/24 03:16:49;;;;;;;9.43;8.50;;;14.80;99.90;;;;;;5076941;28;20972;-54
2022/07/24 03:19:18;;;;;;;9.30;8.50;;;14.80;99.90;;;;;;5078044;28;20514;-59
2022/07/24 03:21:47;;;;;;;9.40;8.60;;;14.80;99.90;;;;;;5076437;28;20466;-59
2022/07/24 03:24:14;;;;;;;10.83;9.83;;;14.90;99.90;;;;;;5075304;28;20465;-60
2022/07/24 03:26:44;;;;;;;10.00;9.10;;;14.90;99.90;;;;;;5077213;28;20700;-59
2022/07/24 03:29:14;;;;;;;9.80;8.80;;;15.00;99.90;;;;;;5065134;28;20527;-56
2022/07/24 03:31:42;;;;;;;8.83;8.00;;;15.00;99.90;;;;;;5077126;28;20457;-54
2022/07/24 03:34:10;;;;;;;9.80;9.00;;;15.00;99.90;;;;;;5075865;28;20480;-55
2022/07/24 03:36:41;;;;;;;9.07;8.27;;;15.00;99.90;;;;;;5077477;28;20468;-54
2022/07/24 03:39:08;;;;;;;9.43;8.23;;;15.00;99.90;;;;;;5079614;28;20459;-53
2022/07/24 03:41:36;;;;;;;10.00;8.67;;;15.10;99.90;;;;;;5080719;28;20895;-57
2022/07/24 03:44:03;;;;;;;9.40;8.60;;;15.10;99.90;;;;;;5079497;28;20504;-58
2022/07/24 03:46:34;;;;;;;9.43;8.53;;;15.10;3.80;;;;;;5080186;28;20469;-56
2022/07/24 03:49:02;;;;;;;8.57;7.70;;;15.10;1.00;;;;;;5079877;28;20556;-55
2022/07/24 03:51:30;;;;;;;9.50;8.70;;;15.10;1.00;;;;;;5080412;28;20583;-56
2022/07/24 03:53:59;;;;;;;10.13;8.90;;;15.20;1.00;;;;;;5079895;28;20452;-59
2022/07/24 03:56:26;;;;;;;14.83;9.57;;;15.20;1.00;;;;;;5079525;28;20568;-57
2022/07/24 03:58:56;;;;;;;9.80;9.00;;;15.20;1.00;;;;;;5079383;28;20428;-57
2022/07/24 04:01:26;;;;;;;9.33;8.13;;;15.20;1.00;;;;;;5080219;28;20770;-58
2022/07/24 04:03:53;;;;;;;9.77;8.90;;;15.20;19.40;;;;;;5079901;28;20527;-59
2022/07/24 04:06:20;;;;;;;8.93;8.07;;;15.20;35.80;;;;;;5079910;28;20887;-55
2022/07/24 04:08:48;;;;;;;9.67;8.50;;;15.20;56.50;;;;;;5079665;28;20775;-60
2022/07/24 04:11:18;;;;;;;8.20;7.37;;;15.20;59.90;;;;;;5079558;28;20530;-57
2022/07/24 04:13:46;;;;;;;8.63;7.83;;;15.30;27.70;;;;;;5079499;28;20472;-59
2022/07/24 04:16:13;;;;;;;8.97;8.20;;;15.30;1.00;;;;;;5079707;28;20472;-60
2022/07/24 04:18:40;;;;;;;9.30;8.40;;;15.40;1.00;;;;;;5080021;28;20841;-60
2022/07/24 04:21:08;;;;;;;9.80;8.80;;;15.50;1.00;;;;;;5078685;28;20587;-58
2022/07/24 04:23:35;;;;;;;8.40;7.70;;;15.50;1.00;;;;;;5079829;28;20464;-59
2022/07/24 04:26:02;;;;;;;9.03;8.23;;;15.50;1.00;;;;;;5079556;28;20504;-58
2022/07/24 04:28:32;;;;;;;8.23;7.43;;;15.60;1.00;;;;;;5079534;28;20797;-59
2022/07/24 04:31:02;;;;;;;9.90;8.87;;;15.60;1.00;;;;;;5078598;28;20527;-59
2022/07/24 04:33:31;;;;;;;8.87;8.07;;;15.70;1.00;;;;;;5079903;28;20915;-60
2022/07/24 04:35:58;;;;;;;9.13;8.30;;;15.80;1.00;;;;;;5079515;28;20769;-60
2022/07/24 04:38:25;;;;;;;9.63;8.77;;;15.80;1.00;;;;;;5079741;28;20489;-60
2022/07/24 04:40:57;;;;;;;8.90;8.10;;;15.80;1.00;;;;;;5078620;28;20518;-59
2022/07/24 04:43:24;;;;;;;8.27;7.57;;;15.80;1.00;;;;;;5079101;28;20428;-60
2022/07/24 04:45:53;;;;;;;9.50;8.20;;;15.90;1.00;;;;;;5079090;28;20446;-59
2022/07/24 04:48:20;;;;;;;8.30;7.50;;;15.90;1.00;;;;;;5078929;28;20461;-60
2022/07/24 04:50:48;;;;;;;10.83;8.47;;;15.90;1.00;;;;;;5077918;28;20832;-58
2022/07/24 04:53:16;;;;;;;8.40;7.80;;;15.90;1.00;;;;;;5079498;28;20885;-60
2022/07/24 04:55:44;;;;;;;8.70;7.90;;;15.90;1.00;;;;;;5078646;28;20530;-60
2022/07/24 04:58:11;;;;;;;9.43;8.63;;;15.90;1.00;;;;;;5078313;28;20519;-60
2022/07/24 05:00:39;;;;;;;8.80;8.00;;;16.00;1.00;;;;;;5077960;28;20499;-60
2022/07/24 05:03:08;;;;;;;9.30;8.40;;;16.00;1.00;;;;;;5078079;28;20475;-55
2022/07/24 05:05:38;;;;;;;8.43;7.73;;;16.10;1.00;;;;;;5079111;28;20518;-60
2022/07/24 05:08:06;;;;;;;8.50;7.80;;;16.20;1.00;;;;;;5078635;28;20465;-60
2022/07/24 05:10:35;;;;;;;8.47;7.77;;;16.30;1.00;;;;;;5079266;28;20461;-60
2022/07/24 05:13:02;;;;;;;7.70;7.03;;;16.30;1.00;;;;;;5078082;28;20559;-60
2022/07/24 05:15:30;;;;;;;8.70;8.00;;;16.20;1.00;;;;;;5079164;28;20522;-60
2022/07/24 05:17:59;;;;;;;8.07;7.27;;;16.30;1.00;;;;;;5078674;28;20477;-60
2022/07/24 05:20:28;;;;;;;9.00;8.20;;;16.40;1.00;;;;;;5078341;28;20489;-59
2022/07/24 05:22:55;;;;;;;8.83;7.97;;;16.50;1.00;;;;;;5078292;28;20784;-60
2022/07/24 05:25:23;;;;;;;9.10;8.40;;;16.60;1.00;;;;;;5078926;28;20587;-60
2022/07/24 05:27:50;;;;;;;9.17;8.37;;;16.70;1.00;;;;;;5077629;28;20877;-59
2022/07/24 05:30:17;;;;;;;8.10;7.40;;;16.80;1.00;;;;;;5078559;28;20458;-60
2022/07/24 05:32:45;;;;;;;7.93;7.13;;;16.90;1.00;;;;;;5077903;28;20480;-60
2022/07/24 05:35:13;;;;;;;9.00;8.20;;;17.00;1.00;;;;;;5058180;28;20458;-58
2022/07/24 05:37:42;;;;;;;7.90;7.10;;;17.10;1.00;;;;;;5066029;28;20944;-60
2022/07/24 05:40:10;;;;;;;8.10;7.40;;;17.20;1.00;;;;;;5078091;28;20603;-60
2022/07/24 05:42:37;;;;;;;7.47;6.87;;;17.40;1.00;;;;;;5078312;28;20461;-60
2022/07/24 05:45:06;;;;;;;7.47;6.77;;;17.50;1.00;;;;;;5077736;28;20461;-60
2022/07/24 05:47:41;;;;;;;8.40;7.67;;;17.70;1.00;;;;;;5077105;28;20469;-61
2022/07/24 05:50:09;;;;;;;6.67;6.07;;;17.80;1.00;;;;;;5078400;28;20480;-60
2022/07/24 05:52:37;;;;;;;7.83;7.13;;;18.00;1.00;;;;;;5077556;28;20513;-59
2022/07/24 05:55:09;;;;;;;7.10;6.40;;;18.20;99.90;;;;;;5076655;28;20538;-61
2022/07/24 05:57:37;;;;;;;6.83;6.23;;;18.40;99.90;;;;;;5077717;28;20462;-57
2022/07/24 06:00:06;;;;;;;7.13;6.13;;;18.50;99.90;;;;;;5076802;28;20517;-61
2022/07/24 06:02:33;;;;;;;6.87;6.17;;;18.70;99.90;;;;;;5078134;28;20534;-61
2022/07/24 06:05:01;;;;;;;6.87;6.37;;;18.80;99.90;;;;;;5076892;28;20496;-61
2022/07/24 06:07:28;;;;;;;6.70;6.20;;;19.10;99.90;;;;;;5078216;28;20465;-60
2022/07/24 06:09:58;;;;;;;9.03;6.33;;;19.30;99.90;;;;;;5077520;28;20493;-61
2022/07/24 06:12:27;;;;;;;6.80;6.30;;;19.50;99.90;;;;;;5077325;28;20461;-61
2022/07/24 06:14:54;;;;;;;7.23;6.10;;;19.90;99.90;;;;;;5077039;28;20920;-60
2022/07/24 06:17:23;;;;;;;6.13;5.63;;;20.20;99.90;;;;;;5077629;28;20476;-57
2022/07/24 06:19:50;;;;;;;6.90;6.40;;;20.50;99.90;;;;;;5077094;28;20560;-61
2022/07/24 06:22:20;;;;;;;6.33;5.83;;;20.70;99.90;;;;;;5077136;28;20431;-61
2022/07/24 06:24:49;;;;;;;6.53;5.90;;;21.10;99.90;;;;;;5078058;28;20496;-61
2022/07/24 06:27:16;;;;;;;6.43;5.80;;;21.40;99.90;;;;;;5075563;28;20873;-60
2022/07/24 06:29:45;;;;;;;6.70;6.10;;;21.50;99.90;;;;;;5076753;28;20436;-60
2022/07/24 06:32:14;;;;;;;5.40;5.00;;;21.80;99.90;;;;;;5057433;28;20753;-60
2022/07/24 06:34:41;;;;;;;6.97;6.10;;;22.00;99.90;;;;;;5064542;28;20765;-58
2022/07/24 06:37:11;;;;;;;6.20;5.60;;;22.30;99.90;;;;;;5076721;28;20760;-58
2022/07/24 06:39:48;;;;;;;6.33;5.73;;;22.60;99.90;;;;;;5076309;28;20465;-56
2022/07/24 06:42:15;;;;;;;5.87;5.20;;;22.90;99.90;;;;;;5076461;28;20463;-55
2022/07/24 06:44:49;;;;;;;5.70;5.20;;;23.30;99.90;;;;;;5076943;28;20493;-60
2022/07/24 06:47:16;;;;;;;6.33;5.73;;;23.60;99.90;;;;;;5076175;28;20548;-60
2022/07/24 06:49:43;;;;;;;7.73;5.23;;;24.00;99.90;;;;;;5077320;28;20563;-60
2022/07/24 06:52:10;;;;;;;5.53;5.03;;;24.20;99.90;;;;;;5077089;28;20580;-58
2022/07/24 06:54:41;;;;;;;5.30;4.90;;;24.40;99.90;;;;;;5077412;28;20479;-60
2022/07/24 06:57:08;;;;;;;5.70;5.30;;;24.60;99.90;;;;;;5076354;28;20882;-58
2022/07/24 06:59:36;;;;;;;5.23;4.83;;;24.90;99.90;;;;;;5060271;28;20527;-60
2022/07/24 07:02:05;;;;;;;6.23;5.73;;;25.20;99.90;;;;;;5075731;28;20559;-60
2022/07/24 07:04:32;;;;;;;5.73;5.33;;;25.40;99.90;;;;;;5077026;28;20462;-59
2022/07/24 07:07:00;;;;;;;6.93;4.90;;;25.60;99.90;;;;;;5076648;28;20474;-61
2022/07/24 07:09:29;;;;;;;6.37;5.77;;;25.60;99.90;;;;;;5075287;28;21004;-58
2022/07/24 07:11:57;;;;;;;5.80;5.20;;;25.90;99.90;;;;;;5078463;28;20428;-61
2022/07/24 07:14:24;;;;;;;6.00;5.37;;;26.10;99.90;;;;;;5081037;28;20801;-57
2022/07/24 07:16:57;;;;;;;6.13;5.67;;;26.10;99.90;;;;;;5080594;28;20526;-57
2022/07/24 07:19:30;;;;;;;6.03;5.53;;;26.00;99.90;;;;;;5080611;28;20564;-57
2022/07/24 07:21:59;;;;;;;5.73;5.07;;;25.90;99.90;;;;;;5080715;28;20558;-60
2022/07/24 07:24:34;;;;;;;5.23;4.83;;;26.00;99.90;;;;;;5080056;28;20465;-60
2022/07/24 07:27:04;;;;;;;5.77;5.27;;;26.40;99.90;;;;;;5081557;28;20460;-61
2022/07/24 07:29:31;;;;;;;6.00;5.60;;;26.40;99.90;;;;;;5079996;28;20461;-61
2022/07/24 07:32:04;;;;;;;6.20;5.70;;;26.50;99.90;;;;;;5080626;28;20475;-61
2022/07/24 07:34:34;;;;;;;5.67;5.17;;;26.60;99.90;;;;;;5079910;28;20979;-58
2022/07/24 07:37:01;;;;;;;5.80;5.20;;;26.80;99.90;;;;;;5080848;28;20555;-61
2022/07/24 07:39:29;;;;;;;5.30;4.90;;;27.00;99.90;;;;;;5079816;28;20527;-61
2022/07/24 07:41:57;;;;;;;5.50;5.10;;;27.10;99.90;;;;;;5071107;28;20780;-62
2022/07/24 07:44:28;;;;;;;5.70;5.30;;;27.00;99.90;;;;;;5072006;28;20526;-60
2022/07/24 07:46:55;;;;;;;6.03;5.60;;;27.10;99.90;;;;;;5080731;28;20472;-62
2022/07/24 07:49:22;;;;;;;6.30;5.70;;;27.40;99.90;;;;;;5079676;28;20518;-60
2022/07/24 07:52:01;;;;;;;6.57;5.70;;;27.70;99.90;;;;;;5062358;28;20481;-62
2022/07/24 07:54:28;;;;;;;6.40;5.90;;;27.60;99.90;;;;;;5077710;28;20468;-60
2022/07/24 07:56:58;;;;;;;6.23;5.73;;;27.80;99.90;;;;;;5080507;28;20435;-60
2022/07/24 07:59:29;;;;;;;6.67;6.07;;;27.70;99.90;;;;;;5079436;28;20461;-61
2022/07/24 08:01:59;;;;;;;5.57;5.20;;;27.70;99.90;;;;;;5079800;28;20496;-61
2022/07/24 08:04:35;;;;;;;5.83;5.30;;;27.70;99.90;;;;;;5078286;28;20465;-60
2022/07/24 08:07:03;;;;;;;6.53;6.03;;;27.80;99.90;;;;;;5080247;28;20464;-59
2022/07/24 08:09:31;;;;;;;5.90;5.50;;;28.10;99.90;;;;;;5080213;28;20930;-61
2022/07/24 08:11:58;;;;;;;5.30;4.90;;;28.40;99.90;;;;;;5079763;28;20457;-59
2022/07/24 08:14:25;;;;;;;6.23;5.73;;;28.60;99.90;;;;;;5079339;28;20800;-60
2022/07/24 08:16:56;;;;;;;5.83;5.43;;;28.70;99.90;;;;;;5079571;28;20461;-59
2022/07/24 08:19:24;;;;;;;5.57;5.07;;;28.80;99.90;;;;;;5080037;28;20464;-59
2022/07/24 08:21:54;;;;;;;6.20;5.60;;;28.70;99.90;;;;;;5080020;28;20583;-53
2022/07/24 08:24:24;;;;;;;5.87;5.47;;;28.80;99.90;;;;;;5079521;28;20468;-59
2022/07/24 08:26:52;;;;;;;6.30;5.70;;;28.70;99.90;;;;;;5079006;28;20436;-57
2022/07/24 08:29:26;;;;;;;6.73;6.20;;;28.70;99.90;;;;;;5080135;28;20505;-59
2022/07/24 08:32:02;;;;;;;6.10;5.70;;;28.10;99.90;;;;;;5079309;28;20457;-59
2022/07/24 08:34:32;;;;;;;7.10;6.50;;;28.00;99.90;;;;;;5079611;28;20563;-59
2022/07/24 08:36:59;;;;;;;7.27;6.77;;;27.70;99.90;;;;;;5077940;28;20576;-62
2022/07/24 08:39:32;;;;;;;5.90;5.50;;;27.50;99.90;;;;;;5078836;28;20457;-59
2022/07/24 08:41:59;;;;;;;6.70;6.10;;;27.50;99.90;;;;;;5079213;28;20493;-59
2022/07/24 08:44:30;;;;;;;6.60;6.10;;;28.00;99.90;;;;;;5079358;28;20540;-60
2022/07/24 08:47:00;;;;;;;6.70;6.00;;;27.90;99.90;;;;;;5078830;28;20839;-59
2022/07/24 08:49:34;;;;;;;6.23;5.70;;;28.10;99.90;;;;;;5079230;28;20552;-59
2022/07/24 08:52:08;;;;;;;6.40;5.80;;;28.30;99.90;;;;;;5078425;28;20804;-57
2022/07/24 08:54:37;;;;;;;7.00;6.40;;;28.90;99.90;;;;;;5079432;28;20493;-59
2022/07/24 08:57:04;;;;;;;6.87;6.27;;;29.00;99.90;;;;;;5078159;28;20552;-59
2022/07/24 08:59:36;;;;;;;7.07;6.47;;;28.90;99.90;;;;;;5079665;28;20555;-58
2022/07/24 09:02:04;;;;;;;6.80;6.33;;;29.40;99.90;;;;;;5078196;28;20468;-59
2022/07/24 09:04:38;;;;;;;7.40;6.80;;;29.70;99.90;;;;;;5072989;28;20934;-59
2022/07/24 09:07:07;;;;;;;6.23;5.80;;;29.70;99.90;;;;;;5075913;28;20457;-59
2022/07/24 09:09:42;;;;;;;6.67;6.17;;;29.90;99.90;;;;;;5072476;28;20874;-58
2022/07/24 09:12:14;;;;;;;6.57;5.93;;;30.10;99.90;;;;;;5077120;28;20782;-59
2022/07/24 09:14:43;;;;;;;7.73;7.07;;;30.40;99.90;;;;;;5077303;28;20547;-59
2022/07/24 09:17:15;;;;;;;6.70;5.83;;;30.40;99.90;;;;;;5076218;28;20802;-59
2022/07/24 09:19:54;;;;;;;7.07;6.37;;;30.50;99.90;;;;;;5077127;28;20464;-59
2022/07/24 09:22:34;;;;;;;6.93;6.40;;;31.00;99.90;;;;;;5075812;28;20489;-60
2022/07/24 09:25:13;;;;;;;6.77;6.17;;;31.10;99.90;;;;;;5076254;28;20449;-59
2022/07/24 09:27:50;;;;;;;6.33;5.73;;;30.80;99.90;;;;;;5077360;28;20468;-59
2022/07/24 09:30:28;;;;;;;7.33;6.63;;;30.90;99.90;;;;;;5078010;28;20977;-61
2022/07/24 09:32:57;;;;;;;8.30;7.53;;;31.20;99.90;;;;;;5078154;28;20950;-60
2022/07/24 09:35:30;;;;;;;6.57;6.07;;;31.00;99.90;;;;;;5076326;28;20465;-60
2022/07/24 09:37:58;;;;;;;7.07;6.57;;;30.80;99.90;;;;;;5078351;28;20885;-60
2022/07/24 09:40:34;;;;;;;8.47;7.77;;;30.50;99.90;;;;;;5073937;28;20507;-60
2022/07/24 09:43:23;;;;;;;8.27;7.57;;;31.00;99.90;;;;;;5086939;28;20523;-60
2022/07/24 09:45:59;;;;;;;8.00;7.40;;;30.70;99.90;;;;;;5066578;28;20461;-59
2022/07/24 09:48:31;;;;;;;10.43;8.30;;;30.80;99.90;;;;;;5076322;28;20898;-60
2022/07/24 09:51:00;;;;;;;7.87;7.17;;;30.70;99.90;;;;;;5077139;28;20851;-60
2022/07/24 09:53:31;;;;;;;8.20;7.50;;;30.60;99.90;;;;;;5075062;28;20485;-60
2022/07/24 09:56:05;;;;;;;9.17;6.60;;;30.50;99.90;;;;;;5077160;28;20523;-60
2022/07/24 09:58:35;;;;;;;7.77;7.17;;;31.00;99.90;;;;;;5077657;28;20578;-60
2022/07/24 10:01:05;;;;;;;8.03;7.20;;;31.60;99.90;;;;;;5075819;28;20937;-60
2022/07/24 10:03:38;;;;;;;7.13;6.43;;;31.90;99.90;;;;;;5077358;28;20461;-60
2022/07/24 10:06:08;;;;;;;7.27;6.57;;;31.90;99.90;;;;;;5076417;28;20830;-61
2022/07/24 10:08:41;;;;;;;7.73;6.93;;;31.70;99.90;;;;;;5076452;28;20447;-60
2022/07/24 10:11:14;;;;;;;7.60;7.10;;;31.90;99.90;;;;;;5076956;28;20461;-60
2022/07/24 10:13:42;;;;;;;8.30;7.70;;;31.40;99.90;;;;;;5077235;28;20461;-60
2022/07/24 10:16:34;;;;;;;8.70;7.57;;;31.50;99.90;;;;;;5077287;28;20501;-60
2022/07/24 10:19:03;;;;;;;7.27;6.67;;;31.90;99.90;;;;;;5067372;28;20576;-60
2022/07/24 10:21:35;;;;;;;7.40;6.73;;;32.10;99.90;;;;;;5076511;28;20489;-60
2022/07/24 10:24:40;;;;;;;9.00;6.87;;;32.00;99.90;;;;;;5070566;28;20489;-60
2022/07/24 10:27:25;;;;;;;8.17;7.47;;;32.00;99.90;;;;;;5073563;28;20539;-60
2022/07/24 10:29:58;;;;;;;8.40;7.70;;;32.00;99.90;;;;;;5074958;28;20461;-60
2022/07/24 10:32:31;;;;;;;7.90;7.10;;;32.20;99.90;;;;;;5075555;28;20460;-60
2022/07/24 10:35:12;;;;;;;7.17;6.47;;;32.30;99.90;;;;;;5075924;28;21004;-60
2022/07/24 10:37:46;;;;;;;7.60;7.00;;;32.40;99.90;;;;;;5071756;28;20828;-60
2022/07/24 10:40:28;;;;;;;8.33;7.57;;;32.70;99.90;;;;;;5072702;28;20460;-59
2022/07/24 10:43:16;;;;;;;7.47;6.90;;;32.50;99.90;;;;;;5072194;28;20803;-60
2022/07/24 10:45:49;;;;;;;8.50;7.77;;;32.30;99.90;;;;;;5076769;28;20611;-60
2022/07/24 10:48:36;;;;;;;7.77;7.07;;;31.90;99.90;;;;;;5076969;28;20496;-60
2022/07/24 10:51:07;;;;;;;7.47;6.97;;;32.00;99.90;;;;;;5076949;28;20933;-60
2022/07/24 10:53:56;;;;;;;7.77;7.27;;;32.20;99.90;;;;;;5074931;28;20778;-61
2022/07/24 10:56:41;;;;;;;7.80;7.10;;;32.10;99.90;;;;;;5076754;28;20921;-56
2022/07/24 10:59:33;;;;;;;7.33;6.83;;;32.30;99.90;;;;;;5077274;28;20877;-58
2022/07/24 11:02:27;;;;;;;8.00;7.07;;;32.60;99.90;;;;;;5076167;28;20781;-60
2022/07/24 11:05:26;;;;;;;8.50;7.70;;;32.90;99.90;;;;;;5073366;28;20468;-58
2022/07/24 11:08:39;;;;;;;8.43;7.70;;;32.60;99.90;;;;;;5075181;28;20461;-54
2022/07/24 11:11:20;;;;;;;8.07;7.37;;;32.50;99.90;;;;;;5076454;28;20922;-59
2022/07/24 11:13:52;;;;;;;8.20;7.60;;;32.70;99.90;;;;;;5071556;28;20560;-60
2022/07/24 11:16:30;;;;;;;7.87;7.27;;;32.50;99.90;;;;;;5072827;28;20832;-59
2022/07/24 11:19:26;;;;;;;7.40;6.70;;;32.60;99.90;;;;;;5072907;28;20551;-60
2022/07/24 11:22:08;;;;;;;8.27;7.67;;;32.40;99.90;;;;;;5070317;28;20493;-56
2022/07/24 11:24:59;;;;;;;7.70;7.10;;;32.90;99.90;;;;;;5070174;28;20432;-60
2022/07/24 11:27:27;;;;;;;7.23;6.63;;;33.30;99.90;;;;;;5073525;28;20447;-54
2022/07/24 11:29:55;;;;;;;7.60;7.10;;;33.10;99.90;;;;;;5074356;28;20522;-59
2022/07/24 11:32:32;;;;;;;8.57;7.80;;;33.10;99.90;;;;;;5073682;28;20475;-60
2022/07/24 11:35:01;;;;;;;7.40;6.80;;;32.90;99.90;;;;;;5074856;28;20561;-55
2022/07/24 11:37:31;;;;;;;7.00;6.40;;;32.50;99.90;;;;;;5073991;28;20511;-60
2022/07/24 11:40:03;;;;;;;7.77;7.10;;;32.90;99.90;;;;;;5070651;28;20458;-59
2022/07/24 11:42:35;;;;;;;7.10;6.60;;;32.80;99.90;;;;;;5073491;28;20587;-57
2022/07/24 11:45:06;;;;;;;7.90;7.20;;;32.80;99.90;;;;;;5073014;28;20808;-59
2022/07/24 11:47:37;;;;;;;7.80;7.00;;;32.60;99.90;;;;;;5073437;28;20549;-60
2022/07/24 11:50:11;;;;;;;7.77;7.17;;;33.10;99.90;;;;;;5071822;28;20834;-59
2022/07/24 11:52:40;;;;;;;7.20;6.70;;;33.20;99.90;;;;;;5073558;28;20490;-56
2022/07/24 11:55:09;;;;;;;6.97;6.40;;;33.70;99.90;;;;;;5073482;28;20788;-58
2022/07/24 11:57:39;;;;;;;6.30;5.80;;;33.90;99.90;;;;;;5072719;28;20485;-59
2022/07/24 12:00:11;;;;;;;7.50;6.90;;;33.80;99.90;;;;;;5075579;28;20547;-60
2022/07/24 12:02:48;;;;;;;6.50;5.90;;;33.60;99.90;;;;;;5076201;28;20499;-60
2022/07/24 12:05:24;;;;;;;6.70;6.20;;;33.50;99.90;;;;;;5076698;28;20820;-55
2022/07/24 12:07:56;;;;;;;6.87;6.33;;;34.00;99.90;;;;;;5076213;28;20543;-60
2022/07/24 12:10:31;;;;;;;8.40;7.63;;;34.10;99.90;;;;;;5077256;28;20461;-55
2022/07/24 12:12:58;;;;;;;7.27;6.67;;;33.90;99.90;;;;;;5077158;28;20762;-58
2022/07/24 12:15:31;;;;;;;7.80;6.90;;;33.90;99.90;;;;;;5076993;28;20522;-59
2022/07/24 12:18:03;;;;;;;6.73;6.13;;;34.00;99.90;;;;;;5075968;28;20493;-57
2022/07/24 12:20:33;;;;;;;6.60;6.00;;;33.40;99.90;;;;;;5077288;28;20811;-59
2022/07/24 12:23:06;;;;;;;6.63;5.93;;;33.20;99.90;;;;;;5070159;28;20503;-56
2022/07/24 12:25:34;;;;;;;8.90;6.70;;;33.60;99.90;;;;;;5078567;28;20456;-59
2022/07/24 12:28:06;;;;;;;7.03;6.37;;;33.90;99.90;;;;;;5077983;28;20533;-59
2022/07/24 12:30:37;;;;;;;6.67;6.17;;;34.50;99.90;;;;;;5061383;28;20432;-58
2022/07/24 12:33:07;;;;;;;6.53;6.03;;;34.40;99.90;;;;;;5079248;28;20831;-60
2022/07/24 12:35:52;;;;;;;7.30;6.57;;;33.80;99.90;;;;;;5079571;28;20530;-58
2022/07/24 12:38:25;;;;;;;7.33;6.60;;;33.70;99.90;;;;;;5078101;28;20894;-60
2022/07/24 12:41:02;;;;;;;7.47;6.77;;;33.10;99.90;;;;;;5073265;28;20469;-60
2022/07/24 12:43:29;;;;;;;6.27;5.83;;;33.50;99.90;;;;;;5079107;28;20523;-59
2022/07/24 12:46:09;;;;;;;7.10;6.60;;;33.70;99.90;;;;;;5078877;28;20563;-60
2022/07/24 12:49:01;;;;;;;7.60;7.00;;;34.10;99.90;;;;;;5076152;28;20464;-59
2022/07/24 12:51:44;;;;;;;5.80;5.30;;;34.30;99.90;;;;;;5075071;28;20757;-57
2022/07/24 12:54:16;;;;;;;6.90;6.40;;;34.60;99.90;;;;;;5073401;28;20547;-59
2022/07/24 12:56:44;;;;;;;6.30;5.90;;;34.60;99.90;;;;;;5076081;28;20461;-58
2022/07/24 12:59:28;;;;;;;7.37;6.83;;;34.70;99.90;;;;;;5076728;28;20467;-60
2022/07/24 13:01:58;;;;;;;7.00;6.50;;;34.80;99.90;;;;;;5076670;28;20547;-60
2022/07/24 13:04:31;;;;;;;6.30;5.90;;;34.50;99.90;;;;;;5077111;28;20928;-60
2022/07/24 13:07:01;;;;;;;7.17;6.13;;;34.30;99.90;;;;;;5078905;28;20526;-58
2022/07/24 13:09:30;;;;;;;6.97;6.30;;;34.30;99.90;;;;;;5077102;28;20468;-58
2022/07/24 13:12:03;;;;;;;6.57;6.00;;;34.60;99.90;;;;;;5079087;28;20465;-61